Time;durP1;ratioP1;P1;durP2;ratioP2;P2;SDS_P1;SDS_P2;PMS_P1;PMS_P2;Temp;Humidity;BMP_temperature;BMP_pressure;BME280_temperature;BME280_humidity;BME280_pressure;Samples;Min_cycle;Max_cycle;Signal;HPM_P1;HPM_P2
2021/01/01 00:01:39;;;;;;;8.80;5.97;;;-0.30;99.90;;;;;;5005019;28;20030;-68
2021/01/01 00:04:05;;;;;;;;;;;-0.20;99.90;;;;;;5006089;28;20014;-68
2021/01/01 00:06:30;;;;;;;17.08;11.27;;;-0.20;99.90;;;;;;4999321;28;19927;-68
2021/01/01 00:08:57;;;;;;;12.93;6.53;;;-0.20;99.90;;;;;;5016844;28;20048;-68
2021/01/01 00:11:23;;;;;;;10.38;8.30;;;-0.30;99.90;;;;;;5016507;28;20026;-68
2021/01/01 00:13:49;;;;;;;15.20;10.68;;;-0.40;99.90;;;;;;5020230;28;20038;-68
2021/01/01 00:16:15;;;;;;;12.83;11.43;;;-0.40;99.90;;;;;;5017989;28;20068;-68
2021/01/01 00:18:42;;;;;;;24.02;12.10;;;-0.50;99.90;;;;;;5008580;28;20042;-68
2021/01/01 00:21:08;;;;;;;11.80;9.05;;;-0.60;99.90;;;;;;5011720;28;20026;-68
2021/01/01 00:23:34;;;;;;;17.40;11.82;;;-0.50;99.90;;;;;;5037017;28;20030;-68
2021/01/01 00:26:00;;;;;;;23.87;14.30;;;-0.50;99.90;;;;;;5022812;28;20037;-68
2021/01/01 00:28:26;;;;;;;11.23;8.35;;;-0.40;99.90;;;;;;5015506;28;20689;-68
2021/01/01 00:30:52;;;;;;;10.93;7.70;;;-0.40;99.90;;;;;;5012871;28;20057;-68
2021/01/01 00:33:19;;;;;;;9.40;8.50;;;-0.40;99.90;;;;;;5013279;28;20133;-68
2021/01/01 00:35:45;;;;;;;12.32;8.75;;;-0.40;99.90;;;;;;5018195;28;20048;-68
2021/01/01 00:38:11;;;;;;;29.67;11.80;;;-0.50;99.90;;;;;;5015193;28;20121;-68
2021/01/01 00:40:36;;;;;;;9.03;8.07;;;-0.50;99.90;;;;;;5016773;28;20153;-68
2021/01/01 00:43:02;;;;;;;20.37;11.83;;;-0.50;99.90;;;;;;5004819;28;20094;-68
2021/01/01 00:45:28;;;;;;;17.70;10.20;;;-0.60;99.90;;;;;;5013816;28;20088;-68
2021/01/01 00:47:53;;;;;;;10.10;9.07;;;-0.70;99.90;;;;;;5028360;28;20155;-68
2021/01/01 00:50:19;;;;;;;12.70;9.40;;;-0.80;99.90;;;;;;5016573;28;20025;-68
2021/01/01 00:52:45;;;;;;;10.20;9.23;;;-0.80;99.90;;;;;;5006200;28;20085;-68
2021/01/01 00:55:11;;;;;;;35.20;13.73;;;-0.70;99.90;;;;;;5009330;28;20034;-68
2021/01/01 00:57:37;;;;;;;21.42;9.55;;;-0.80;99.90;;;;;;5022474;28;20040;-68
2021/01/01 01:00:06;;;;;;;12.17;9.37;;;-0.90;99.90;;;;;;5009297;28;20041;-68
2021/01/01 01:02:33;;;;;;;24.98;11.93;;;-0.90;99.90;;;;;;5014816;28;20022;-68
2021/01/01 01:04:59;;;;;;;21.15;12.05;;;-0.90;99.90;;;;;;5002667;28;20031;-68
2021/01/01 01:07:24;;;;;;;34.83;13.60;;;-1.00;99.90;;;;;;5004660;28;20097;-68
2021/01/01 01:09:51;;;;;;;17.17;10.07;;;-1.00;99.90;;;;;;5012033;28;20672;-68
2021/01/01 01:12:18;;;;;;;13.63;10.85;;;-1.00;99.90;;;;;;5006633;28;20061;-68
2021/01/01 01:14:45;;;;;;;21.23;13.32;;;-0.90;99.90;;;;;;5012109;28;20114;-68
2021/01/01 01:17:10;;;;;;;21.88;12.45;;;-0.90;99.90;;;;;;5000523;28;20052;-68
2021/01/01 01:19:36;;;;;;;19.87;13.07;;;-0.90;99.90;;;;;;5009228;28;20417;-67
2021/01/01 01:22:02;;;;;;;15.87;11.87;;;-0.90;99.90;;;;;;5000461;28;20022;-68
2021/01/01 01:24:28;;;;;;;31.03;16.03;;;-0.90;99.90;;;;;;5004177;28;20030;-68
2021/01/01 01:26:53;;;;;;;20.30;9.60;;;-0.90;99.90;;;;;;5015197;28;20062;-68
2021/01/01 01:29:19;;;;;;;16.20;11.47;;;-0.90;99.90;;;;;;5007506;28;20021;-68
2021/01/01 01:31:45;;;;;;;20.90;12.37;;;-0.90;99.90;;;;;;5013876;28;20034;-68
2021/01/01 01:34:10;;;;;;;13.77;11.33;;;-0.80;99.90;;;;;;5012243;28;20029;-68
2021/01/01 01:36:36;;;;;;;13.73;11.30;;;-0.80;99.90;;;;;;5020675;28;20317;-68
2021/01/01 01:39:02;;;;;;;32.53;13.20;;;-0.70;99.90;;;;;;5023792;28;20030;-68
2021/01/01 01:41:28;;;;;;;22.80;16.20;;;-0.70;99.90;;;;;;5006456;28;20038;-68
2021/01/01 01:43:54;;;;;;;20.57;16.77;;;-0.70;99.90;;;;;;5015289;28;20088;-68
2021/01/01 01:46:22;;;;;;;17.17;13.53;;;-0.70;99.90;;;;;;5013123;28;20026;-68
2021/01/01 01:48:48;;;;;;;22.33;18.35;;;-0.70;99.90;;;;;;5014437;28;20029;-68
2021/01/01 01:51:14;;;;;;;37.40;18.83;;;-0.60;99.90;;;;;;5014752;28;20117;-68
2021/01/01 01:53:43;;;;;;;42.83;22.80;;;-0.60;99.90;;;;;;5008119;28;20463;-68
2021/01/01 01:56:11;;;;;;;28.00;17.40;;;-0.50;99.90;;;;;;5042756;28;20036;-68
2021/01/01 01:58:39;;;;;;;47.95;21.27;;;-0.50;99.90;;;;;;5018747;28;20037;-68
2021/01/01 02:01:05;;;;;;;28.75;15.73;;;-0.50;99.90;;;;;;5015956;28;20022;-68
2021/01/01 02:03:32;;;;;;;38.23;20.17;;;-0.40;99.90;;;;;;5013245;28;20025;-68
2021/01/01 02:05:58;;;;;;;28.75;17.38;;;-0.40;99.90;;;;;;5007866;28;20109;-68
2021/01/01 02:08:24;;;;;;;31.05;16.13;;;-0.30;99.90;;;;;;5000164;28;20026;-68
2021/01/01 02:10:52;;;;;;;19.37;13.00;;;-0.30;99.90;;;;;;4997509;28;20053;-67
2021/01/01 02:13:18;;;;;;;27.50;17.10;;;-0.20;99.90;;;;;;5004330;28;20034;-68
2021/01/01 02:15:44;;;;;;;39.40;16.58;;;-0.20;99.90;;;;;;5011925;28;20503;-68
2021/01/01 02:18:10;;;;;;;23.43;17.10;;;-0.20;99.90;;;;;;5027309;28;20132;-68
2021/01/01 02:20:36;;;;;;;35.70;16.83;;;-0.10;99.90;;;;;;5014746;28;20362;-68
2021/01/01 02:23:02;;;;;;;31.00;15.63;;;-0.10;99.90;;;;;;5021083;28;20111;-68
2021/01/01 02:25:29;;;;;;;19.33;14.40;;;-0.10;99.90;;;;;;5034129;28;20041;-68
2021/01/01 02:27:54;;;;;;;23.85;16.52;;;-0.10;99.90;;;;;;5013876;28;20044;-68
2021/01/01 02:30:20;;;;;;;40.00;22.57;;;-0.10;99.90;;;;;;5020722;28;20451;-68
2021/01/01 02:32:46;;;;;;;31.50;16.63;;;-0.10;99.90;;;;;;5006991;28;20448;-68
2021/01/01 02:35:12;;;;;;;26.27;17.47;;;0.00;99.90;;;;;;5008963;28;20049;-68
2021/01/01 02:37:38;;;;;;;19.27;12.33;;;-0.10;99.90;;;;;;5024191;28;20116;-68
2021/01/01 02:40:05;;;;;;;24.93;17.20;;;-0.10;99.90;;;;;;5011207;28;20034;-68
2021/01/01 02:42:31;;;;;;;33.67;15.05;;;-0.20;99.90;;;;;;5020683;28;20026;-68
2021/01/01 02:44:57;;;;;;;34.37;23.80;;;-0.20;99.90;;;;;;5016111;28;20106;-68
2021/01/01 02:47:23;;;;;;;30.37;14.63;;;-0.20;99.90;;;;;;5021564;28;20148;-68
2021/01/01 02:49:48;;;;;;;19.83;16.53;;;-0.20;99.90;;;;;;5016780;28;20030;-68
2021/01/01 02:52:14;;;;;;;27.20;18.33;;;-0.20;99.90;;;;;;5019102;28;20025;-68
2021/01/01 02:54:40;;;;;;;32.57;18.90;;;-0.30;99.90;;;;;;5011648;28;20030;-67
2021/01/01 02:57:05;;;;;;;33.73;15.77;;;-0.30;99.90;;;;;;5022441;28;20313;-68
2021/01/01 02:59:31;;;;;;;27.93;20.40;;;-0.20;99.90;;;;;;5014161;28;20092;-68
2021/01/01 03:01:57;;;;;;;46.50;19.63;;;-0.20;99.90;;;;;;5018804;28;20022;-68
2021/01/01 03:04:22;;;;;;;23.20;14.23;;;-0.20;99.90;;;;;;5021132;28;20034;-68
2021/01/01 03:06:48;;;;;;;22.20;19.17;;;-0.20;99.90;;;;;;5027831;28;20026;-68
2021/01/01 03:09:14;;;;;;;30.50;16.60;;;-0.20;99.90;;;;;;5008980;28;20038;-68
2021/01/01 03:11:39;;;;;;;51.50;22.90;;;-0.20;99.90;;;;;;5015163;28;20033;-67
2021/01/01 03:14:05;;;;;;;50.00;21.33;;;-0.20;99.90;;;;;;5015457;28;20377;-68
2021/01/01 03:16:31;;;;;;;28.33;17.40;;;-0.20;99.90;;;;;;5006590;28;20031;-68
2021/01/01 03:18:56;;;;;;;31.13;23.23;;;-0.20;99.90;;;;;;5006902;28;20038;-68
2021/01/01 03:21:23;;;;;;;30.23;17.60;;;-0.20;99.90;;;;;;5002849;28;20057;-67
2021/01/01 03:23:48;;;;;;;28.65;21.52;;;-0.20;99.90;;;;;;5014576;28;20029;-68
2021/01/01 03:26:14;;;;;;;50.23;31.80;;;-0.30;99.90;;;;;;5010783;28;20084;-67
2021/01/01 03:28:40;;;;;;;50.03;26.93;;;-0.30;99.90;;;;;;5001078;28;20400;-68
2021/01/01 03:31:07;;;;;;;45.53;23.10;;;-0.30;99.90;;;;;;5014316;28;20018;-68
2021/01/01 03:33:33;;;;;;;48.30;25.63;;;-0.20;99.90;;;;;;5010222;28;20024;-68
2021/01/01 03:36:03;;;;;;;35.40;23.60;;;-0.20;99.90;;;;;;5017951;28;20080;-67
2021/01/01 03:38:31;;;;;;;41.80;23.25;;;-0.20;99.90;;;;;;5015804;28;20060;-67
2021/01/01 03:40:57;;;;;;;51.20;26.25;;;-0.10;99.90;;;;;;5008489;28;20030;-68
2021/01/01 03:43:23;;;;;;;26.40;23.50;;;-0.10;99.90;;;;;;5008574;28;20018;-68
2021/01/01 03:45:49;;;;;;;38.90;26.87;;;-0.10;99.90;;;;;;5015615;28;20029;-68
2021/01/01 03:48:15;;;;;;;36.20;21.67;;;-0.10;99.90;;;;;;5011468;28;20420;-68
2021/01/01 03:50:41;;;;;;;;;;;-0.10;99.90;;;;;;5027420;28;20426;-68
2021/01/01 03:53:07;;;;;;;37.63;19.63;;;-0.10;99.90;;;;;;5030777;28;19916;-68
2021/01/01 03:55:32;;;;;;;37.63;23.33;;;-0.10;99.90;;;;;;5028797;28;20344;-68
2021/01/01 03:57:58;;;;;;;25.17;17.87;;;-0.10;99.90;;;;;;5044838;28;20056;-68
2021/01/01 04:00:24;;;;;;;30.73;21.87;;;-0.10;99.90;;;;;;5021428;28;20048;-68
2021/01/01 04:02:49;;;;;;;42.53;27.43;;;-0.10;99.90;;;;;;5029693;28;20026;-68
2021/01/01 04:05:15;;;;;;;39.67;17.30;;;-0.10;99.90;;;;;;5026503;28;20018;-68
2021/01/01 04:07:41;;;;;;;32.40;15.63;;;-0.20;99.90;;;;;;5028384;28;20029;-68
2021/01/01 04:10:07;;;;;;;29.83;20.83;;;-0.10;99.90;;;;;;5018754;28;20061;-68
2021/01/01 04:12:33;;;;;;;53.03;23.27;;;-0.10;99.90;;;;;;5019942;28;20152;-68
2021/01/01 04:14:58;;;;;;;26.17;15.93;;;-0.10;99.90;;;;;;5017035;28;20108;-68
2021/01/01 04:17:24;;;;;;;31.77;20.10;;;-0.10;99.90;;;;;;5018048;28;20033;-68
2021/01/01 04:19:49;;;;;;;44.43;19.77;;;-0.10;99.90;;;;;;5026377;28;20037;-68
2021/01/01 04:22:15;;;;;;;42.53;18.57;;;-0.10;99.90;;;;;;5028356;28;20026;-67
2021/01/01 04:24:41;;;;;;;25.57;18.73;;;0.00;99.90;;;;;;5032058;28;20022;-68
2021/01/01 04:27:06;;;;;;;23.43;17.37;;;-0.10;99.90;;;;;;5027343;28;20104;-68
2021/01/01 04:29:32;;;;;;;25.03;19.87;;;0.00;99.90;;;;;;5016337;28;20033;-68
2021/01/01 04:31:58;;;;;;;26.27;16.67;;;0.00;99.90;;;;;;5027044;28;20104;-68
2021/01/01 04:34:24;;;;;;;16.63;11.73;;;0.00;99.90;;;;;;5015522;28;20026;-68
2021/01/01 04:36:49;;;;;;;39.17;18.27;;;0.00;99.90;;;;;;5013034;28;20033;-68
2021/01/01 04:39:15;;;;;;;30.83;15.90;;;0.10;99.90;;;;;;5001611;28;20050;-68
2021/01/01 04:41:42;;;;;;;21.53;15.07;;;0.20;99.90;;;;;;5011313;28;20030;-68
2021/01/01 04:44:08;;;;;;;32.22;17.92;;;0.20;99.90;;;;;;5006113;28;20184;-68
2021/01/01 04:46:36;;;;;;;23.67;14.15;;;0.20;99.90;;;;;;5009009;28;20345;-68
2021/01/01 04:49:03;;;;;;;22.60;11.35;;;0.20;99.90;;;;;;5012838;28;20418;-68
2021/01/01 04:51:28;;;;;;;25.88;11.15;;;0.20;99.90;;;;;;5001310;28;20045;-68
2021/01/01 04:53:57;;;;;;;11.97;9.17;;;0.20;99.90;;;;;;5013869;28;20278;-68
2021/01/01 04:56:24;;;;;;;16.40;12.45;;;0.20;99.90;;;;;;5002489;28;20142;-68
2021/01/01 04:58:49;;;;;;;17.83;13.32;;;0.20;99.90;;;;;;5010759;28;20113;-68
2021/01/01 05:01:15;;;;;;;25.80;15.60;;;0.20;99.90;;;;;;5001456;28;20432;-68
2021/01/01 05:03:41;;;;;;;15.07;12.03;;;0.20;99.90;;;;;;5008427;28;20034;-68
2021/01/01 05:06:07;;;;;;;29.53;17.73;;;0.20;99.90;;;;;;5014611;28;20029;-68
2021/01/01 05:08:33;;;;;;;23.67;13.07;;;0.20;99.90;;;;;;5005562;28;20057;-67
2021/01/01 05:11:06;;;;;;;39.03;17.83;;;0.20;99.90;;;;;;5002985;28;20335;-67
2021/01/01 05:13:32;;;;;;;17.38;11.52;;;0.30;99.90;;;;;;5014369;28;20100;-68
2021/01/01 05:16:00;;;;;;;11.90;8.80;;;0.20;99.90;;;;;;5012866;28;20429;-68
2021/01/01 05:18:27;;;;;;;27.88;12.90;;;0.20;99.90;;;;;;5008502;28;20396;-68
2021/01/01 05:20:58;;;;;;;26.88;12.80;;;0.30;99.90;;;;;;5020769;28;20033;-68
2021/01/01 05:23:25;;;;;;;22.10;14.27;;;0.30;99.90;;;;;;5002908;28;20037;-68
2021/01/01 05:26:06;;;;;;;18.23;13.45;;;0.30;99.90;;;;;;5008524;28;20045;-68
2021/01/01 05:28:39;;;;;;;31.95;14.73;;;0.30;99.90;;;;;;5012393;28;21176;-68
2021/01/01 05:31:12;;;;;;;15.23;12.77;;;0.30;99.90;;;;;;5002841;28;20444;-68
2021/01/01 05:33:42;;;;;;;30.48;14.27;;;0.40;99.90;;;;;;5013702;28;20038;-68
2021/01/01 05:36:08;;;;;;;22.45;13.68;;;0.40;99.90;;;;;;5012106;28;20084;-68
2021/01/01 05:38:36;;;;;;;16.73;11.50;;;0.40;99.90;;;;;;5014235;28;20119;-68
2021/01/01 05:41:02;;;;;;;20.45;13.50;;;0.40;99.90;;;;;;5008202;28;20109;-68
2021/01/01 05:43:28;;;;;;;9.07;8.27;;;0.50;99.90;;;;;;5005609;28;20033;-68
2021/01/01 05:46:09;;;;;;;17.05;10.90;;;0.40;99.90;;;;;;5007833;28;20271;-67
2021/01/01 05:48:35;;;;;;;12.63;11.32;;;0.40;99.90;;;;;;5004120;28;20026;-68
2021/01/01 05:51:07;;;;;;;13.67;9.73;;;0.40;99.90;;;;;;5009187;28;20053;-67
2021/01/01 05:53:33;;;;;;;12.40;8.13;;;0.50;99.90;;;;;;5013695;28;20021;-67
2021/01/01 05:56:08;;;;;;;11.88;8.15;;;0.50;99.90;;;;;;5000641;28;20341;-68
2021/01/01 05:58:34;;;;;;;16.60;13.18;;;0.50;99.90;;;;;;5019312;28;20039;-68
2021/01/01 06:01:02;;;;;;;20.83;10.50;;;0.50;99.90;;;;;;5006856;28;20038;-67
2021/01/01 06:03:34;;;;;;;13.60;11.02;;;0.60;99.90;;;;;;5039804;28;20040;-68
2021/01/01 06:06:06;;;;;;;11.65;8.82;;;0.60;99.90;;;;;;5020150;28;20038;-67
2021/01/01 06:08:33;;;;;;;18.33;10.25;;;0.60;99.90;;;;;;5013154;28;20025;-68
2021/01/01 06:11:05;;;;;;;20.60;9.50;;;0.70;99.90;;;;;;5012612;28;20034;-68
2021/01/01 06:13:33;;;;;;;20.77;8.90;;;0.80;99.90;;;;;;5018421;28;20413;-67
2021/01/01 06:16:09;;;;;;;16.67;7.45;;;0.80;99.90;;;;;;5014764;28;20030;-67
2021/01/01 06:18:35;;;;;;;19.48;10.25;;;0.80;99.90;;;;;;5005807;28;20052;-67
2021/01/01 06:21:08;;;;;;;19.47;7.93;;;0.80;99.90;;;;;;5021706;28;20424;-67
2021/01/01 06:23:35;;;;;;;11.55;6.88;;;0.80;99.90;;;;;;5021213;28;20108;-67
2021/01/01 06:26:03;;;;;;;24.58;11.65;;;0.80;99.90;;;;;;5011135;28;20113;-67
2021/01/01 06:28:31;;;;;;;22.30;11.35;;;0.90;99.90;;;;;;5018664;28;20057;-67
2021/01/01 06:30:58;;;;;;;11.55;9.25;;;0.90;99.90;;;;;;5015045;28;20036;-68
2021/01/01 06:33:24;;;;;;;25.05;9.80;;;0.90;99.90;;;;;;5014078;28;20029;-68
2021/01/01 06:35:51;;;;;;;19.13;10.60;;;0.90;99.90;;;;;;5018846;28;20042;-68
2021/01/01 06:38:40;;;;;;;20.48;10.45;;;0.90;99.90;;;;;;5013120;28;20129;-67
2021/01/01 06:41:44;;;;;;;16.17;9.25;;;0.90;99.90;;;;;;5007621;28;20044;-70
2021/01/01 06:44:10;;;;;;;19.73;7.25;;;0.90;99.90;;;;;;5011286;28;20022;-68
2021/01/01 06:46:40;;;;;;;14.30;8.77;;;1.00;99.90;;;;;;5018531;28;20029;-68
2021/01/01 06:49:08;;;;;;;11.18;7.07;;;1.00;99.90;;;;;;5017703;28;20053;-68
2021/01/01 06:51:34;;;;;;;17.52;8.75;;;1.00;99.90;;;;;;5015837;28;20025;-68
2021/01/01 06:54:10;;;;;;;11.25;8.55;;;1.00;99.90;;;;;;5007980;28;20061;-67
2021/01/01 06:56:40;;;;;;;12.57;7.43;;;1.00;99.90;;;;;;5003290;28;20034;-68
2021/01/01 06:59:14;;;;;;;18.90;7.90;;;1.00;99.90;;;;;;5021190;28;20117;-69
2021/01/01 07:01:49;;;;;;;18.40;9.25;;;1.00;99.90;;;;;;5011966;28;20018;-68
2021/01/01 07:04:14;;;;;;;7.60;5.75;;;1.00;99.90;;;;;;5013190;28;20149;-68
2021/01/01 07:06:42;;;;;;;10.63;6.80;;;1.00;99.90;;;;;;5009388;28;20121;-68
2021/01/01 07:09:09;;;;;;;10.90;6.95;;;1.00;99.90;;;;;;5013691;28;20034;-69
2021/01/01 07:11:36;;;;;;;21.40;7.97;;;1.00;99.90;;;;;;5014920;28;20037;-68
2021/01/01 07:14:05;;;;;;;;;;;1.00;99.90;;;;;;5017208;28;20022;-68
2021/01/01 07:16:34;;;;;;;10.88;7.82;;;1.00;99.90;;;;;;5012712;28;20004;-68
2021/01/01 07:19:00;;;;;;;15.80;7.65;;;1.00;99.90;;;;;;5014252;28;20033;-68
2021/01/01 07:21:26;;;;;;;8.70;4.05;;;1.10;99.90;;;;;;5015041;28;20417;-68
2021/01/01 07:23:52;;;;;;;6.57;5.77;;;1.00;99.90;;;;;;5003854;28;20041;-68
2021/01/01 07:26:18;;;;;;;18.93;3.53;;;1.10;99.90;;;;;;5013659;28;20041;-68
2021/01/01 07:28:46;;;;;;;6.83;6.23;;;1.10;99.90;;;;;;5013391;28;20038;-68
2021/01/01 07:31:16;;;;;;;6.63;5.95;;;1.10;99.90;;;;;;5026997;28;20657;-68
2021/01/01 07:33:43;;;;;;;5.25;4.75;;;1.10;99.90;;;;;;5013800;28;20058;-69
2021/01/01 07:36:10;;;;;;;8.73;5.70;;;1.10;99.90;;;;;;5013327;28;20139;-69
2021/01/01 07:38:39;;;;;;;9.98;6.95;;;1.10;99.90;;;;;;5009523;28;20046;-68
2021/01/01 07:41:06;;;;;;;15.98;8.95;;;1.00;99.90;;;;;;5026559;28;20061;-69
2021/01/01 07:43:33;;;;;;;8.98;8.10;;;1.00;99.90;;;;;;5004480;28;20636;-68
2021/01/01 07:46:10;;;;;;;8.40;7.30;;;1.00;99.90;;;;;;5009923;28;20040;-68
2021/01/01 07:48:36;;;;;;;;;;;1.00;99.90;;;;;;5006355;28;20026;-68
2021/01/01 07:51:07;;;;;;;7.72;5.72;;;1.10;99.90;;;;;;5010036;28;19913;-68
2021/01/01 07:53:34;;;;;;;9.23;5.85;;;1.10;99.90;;;;;;5015338;28;20034;-68
2021/01/01 07:56:01;;;;;;;13.70;8.35;;;1.10;99.90;;;;;;5014458;28;20030;-68
2021/01/01 07:58:31;;;;;;;17.00;7.65;;;1.10;99.90;;;;;;5010645;28;20038;-68
2021/01/01 08:01:01;;;;;;;6.30;5.10;;;1.20;99.90;;;;;;5005265;28;20041;-68
2021/01/01 08:03:27;;;;;;;11.32;7.45;;;1.10;99.90;;;;;;5009427;28;20396;-68
2021/01/01 08:05:53;;;;;;;14.33;10.50;;;1.00;99.90;;;;;;5045652;28;20105;-69
2021/01/01 08:08:22;;;;;;;12.80;7.00;;;1.10;99.90;;;;;;5002399;28;20057;-68
2021/01/01 08:10:49;;;;;;;22.80;7.20;;;1.10;99.90;;;;;;5000914;28;20104;-68
2021/01/01 08:13:19;;;;;;;7.75;6.75;;;1.10;99.90;;;;;;5016854;28;20431;-69
2021/01/01 08:15:45;;;;;;;7.32;6.07;;;1.00;99.90;;;;;;5026835;28;20096;-68
2021/01/01 08:18:21;;;;;;;20.10;8.77;;;1.10;99.90;;;;;;5026624;28;20094;-69
2021/01/01 08:20:48;;;;;;;9.80;7.75;;;1.10;99.90;;;;;;5013120;28;20116;-68
2021/01/01 08:23:15;;;;;;;;;;;1.10;99.90;;;;;;5023834;28;20100;-68
2021/01/01 08:25:42;;;;;;;7.60;5.60;;;1.20;99.90;;;;;;5020257;28;19913;-68
2021/01/01 08:28:08;;;;;;;8.13;5.45;;;1.30;99.90;;;;;;5031627;28;20025;-69
2021/01/01 08:30:36;;;;;;;5.78;4.75;;;1.30;99.90;;;;;;5022241;28;20111;-69
2021/01/01 08:33:07;;;;;;;10.43;5.35;;;1.40;99.90;;;;;;5028273;28;20026;-68
2021/01/01 08:35:33;;;;;;;5.28;4.80;;;1.50;99.90;;;;;;5026027;28;20116;-69
2021/01/01 08:37:59;;;;;;;12.03;4.40;;;1.50;99.90;;;;;;5027159;28;20075;-68
2021/01/01 08:40:25;;;;;;;5.27;4.77;;;1.60;99.90;;;;;;5019748;28;20701;-69
2021/01/01 08:42:55;;;;;;;7.20;5.05;;;1.60;99.90;;;;;;5024304;28;20190;-69
2021/01/01 08:45:31;;;;;;;8.57;5.55;;;1.70;99.90;;;;;;5019288;28;20379;-69
2021/01/01 08:47:56;;;;;;;3.80;2.30;;;1.70;99.90;;;;;;5022013;28;20076;-69
2021/01/01 08:50:28;;;;;;;5.03;3.10;;;1.80;99.90;;;;;;5027107;28;20368;-69
2021/01/01 08:52:58;;;;;;;3.70;3.38;;;1.80;99.90;;;;;;5019394;28;20409;-69
2021/01/01 08:55:24;;;;;;;4.45;3.80;;;1.80;99.90;;;;;;5023049;28;20026;-69
2021/01/01 08:57:50;;;;;;;11.63;4.63;;;1.90;99.90;;;;;;5022706;28;20036;-69
2021/01/01 09:00:17;;;;;;;7.30;4.07;;;1.90;99.90;;;;;;5019345;28;20029;-69
2021/01/01 09:02:45;;;;;;;4.20;3.72;;;1.90;99.90;;;;;;5021117;28;20033;-69
2021/01/01 09:05:11;;;;;;;8.05;2.88;;;2.00;99.90;;;;;;5024224;28;20037;-69
2021/01/01 09:07:37;;;;;;;11.60;4.35;;;2.00;99.90;;;;;;5018545;28;20053;-69
2021/01/01 09:10:17;;;;;;;4.60;3.23;;;2.10;99.90;;;;;;5002496;28;20061;-69
2021/01/01 09:12:43;;;;;;;13.35;7.55;;;2.10;99.90;;;;;;5023449;28;20128;-69
2021/01/01 09:15:09;;;;;;;5.22;4.78;;;2.30;99.90;;;;;;5026601;28;20109;-69
2021/01/01 09:17:35;;;;;;;19.95;4.38;;;2.30;99.90;;;;;;5023044;28;20135;-69
2021/01/01 09:20:02;;;;;;;10.17;3.73;;;2.40;99.90;;;;;;5011520;28;20057;-69
2021/01/01 09:22:35;;;;;;;3.97;3.47;;;2.40;99.90;;;;;;5022599;28;20021;-69
2021/01/01 09:25:23;;;;;;;4.28;2.45;;;2.40;99.90;;;;;;5036531;28;20091;-69
2021/01/01 09:27:50;;;;;;;8.00;3.13;;;2.50;99.90;;;;;;5023156;28;20055;-68
2021/01/01 09:30:16;;;;;;;;;;;2.50;99.90;;;;;;5034800;28;20143;-68
2021/01/01 09:32:43;;;;;;;4.88;2.83;;;2.50;99.90;;;;;;4996918;28;19912;-69
2021/01/01 09:35:10;;;;;;;1.65;1.55;;;2.50;99.90;;;;;;5013512;28;20036;-69
2021/01/01 09:37:36;;;;;;;5.90;4.97;;;2.50;99.90;;;;;;5009289;28;20033;-69
2021/01/01 09:40:02;;;;;;;7.70;3.77;;;2.40;99.90;;;;;;5002736;28;20145;-69
2021/01/01 09:42:28;;;;;;;5.45;2.97;;;2.40;99.90;;;;;;5018575;28;20030;-69
2021/01/01 09:44:53;;;;;;;5.20;4.70;;;2.40;99.90;;;;;;5010289;28;20425;-69
2021/01/01 09:47:19;;;;;;;5.53;3.57;;;2.40;99.90;;;;;;5024003;28;20034;-68
2021/01/01 09:49:45;;;;;;;3.13;2.80;;;2.40;99.90;;;;;;4932648;28;20044;-69
2021/01/01 09:52:10;;;;;;;2.20;1.90;;;2.50;99.90;;;;;;4856048;28;21277;-69
2021/01/01 09:54:36;;;;;;;8.37;4.30;;;2.50;99.90;;;;;;4849622;28;20807;-69
2021/01/01 09:57:02;;;;;;;5.47;3.90;;;2.50;99.90;;;;;;4854324;28;20817;-69
2021/01/01 09:59:28;;;;;;;5.40;4.37;;;2.60;99.90;;;;;;4853539;28;20028;-69
2021/01/01 10:01:53;;;;;;;5.50;3.30;;;2.60;99.90;;;;;;4853364;28;20045;-68
2021/01/01 10:04:19;;;;;;;6.30;3.63;;;2.60;99.90;;;;;;4869530;28;20328;-69
2021/01/01 10:06:49;;;;;;;3.78;3.45;;;2.70;99.90;;;;;;4935837;28;20045;-69
2021/01/01 10:09:15;;;;;;;5.63;3.97;;;2.70;99.90;;;;;;5002821;28;20100;-69
2021/01/01 10:11:41;;;;;;;6.57;4.13;;;2.80;99.90;;;;;;5021304;28;20163;-69
2021/01/01 10:14:07;;;;;;;6.75;4.95;;;2.80;99.90;;;;;;5014959;28;20061;-69
2021/01/01 10:16:39;;;;;;;3.25;2.50;;;2.90;99.90;;;;;;5015771;28;20036;-69
2021/01/01 10:19:04;;;;;;;5.80;4.13;;;2.90;99.90;;;;;;5007456;28;20030;-69
2021/01/01 10:21:30;;;;;;;3.00;2.78;;;3.00;99.90;;;;;;5026609;28;20021;-69
2021/01/01 10:23:56;;;;;;;11.97;3.70;;;3.00;99.90;;;;;;5018189;28;20026;-69
2021/01/01 10:26:21;;;;;;;9.63;3.67;;;3.10;99.90;;;;;;5022740;28;20106;-69
2021/01/01 10:28:47;;;;;;;2.67;1.73;;;3.10;99.90;;;;;;5015401;28;20101;-69
2021/01/01 10:31:13;;;;;;;2.83;2.03;;;3.20;99.90;;;;;;5019031;28;20302;-69
2021/01/01 10:33:38;;;;;;;6.47;3.97;;;3.30;99.90;;;;;;5027525;28;20029;-69
2021/01/01 10:36:04;;;;;;;4.50;1.80;;;3.40;99.90;;;;;;5011050;28;20113;-69
2021/01/01 10:38:31;;;;;;;6.47;4.43;;;3.50;99.90;;;;;;5020197;28;20305;-69
2021/01/01 10:40:57;;;;;;;14.10;3.50;;;3.60;99.90;;;;;;5020577;28;20620;-69
2021/01/01 10:43:23;;;;;;;2.13;2.00;;;3.60;99.90;;;;;;5027432;28;20045;-69
2021/01/01 10:45:48;;;;;;;13.13;5.37;;;3.70;99.90;;;;;;5024077;28;20026;-69
2021/01/01 10:48:14;;;;;;;1.63;1.53;;;3.90;99.90;;;;;;5019901;28;20026;-69
2021/01/01 10:50:40;;;;;;;2.33;2.15;;;4.00;99.90;;;;;;5004105;28;20041;-69
2021/01/01 10:53:05;;;;;;;1.70;1.20;;;4.10;99.90;;;;;;5014062;28;20101;-69
2021/01/01 10:55:33;;;;;;;3.07;1.97;;;4.20;99.90;;;;;;5024054;28;20033;-69
2021/01/01 10:57:59;;;;;;;5.82;2.95;;;4.40;99.90;;;;;;5016060;28;20026;-69
2021/01/01 11:00:24;;;;;;;2.47;2.28;;;4.50;99.90;;;;;;5019384;28;20427;-69
2021/01/01 11:02:50;;;;;;;1.35;1.27;;;4.70;99.90;;;;;;5020722;28;20435;-69
2021/01/01 11:05:16;;;;;;;3.00;2.05;;;4.90;99.90;;;;;;5017111;28;20021;-69
2021/01/01 11:07:43;;;;;;;1.45;1.35;;;5.00;99.90;;;;;;4875639;28;21184;-69
2021/01/01 11:10:09;;;;;;;;;;;5.10;99.90;;;;;;4878309;28;20036;-69
2021/01/01 11:12:34;;;;;;;9.65;4.40;;;5.00;99.90;;;;;;4885149;28;19913;-70
2021/01/01 12:26:39;;;;;;;2.50;1.67;;;5.10;99.90;;;;;;5019659;28;20022;-69
2021/01/01 12:29:05;;;;;;;1.00;0.83;;;5.20;99.90;;;;;;5022199;28;20107;-69
2021/01/01 12:31:31;;;;;;;1.05;0.95;;;5.30;99.90;;;;;;5018174;28;20017;-69
2021/01/01 12:33:57;;;;;;;1.00;1.00;;;5.30;99.90;;;;;;5008477;28;20439;-69
2021/01/01 12:36:23;;;;;;;4.78;1.45;;;5.30;99.90;;;;;;5000790;28;20037;-69
2021/01/01 12:38:49;;;;;;;15.13;3.27;;;5.30;99.90;;;;;;5019916;28;20041;-69
2021/01/01 12:41:15;;;;;;;0.90;0.83;;;5.30;99.90;;;;;;5016072;28;20029;-69
2021/01/01 12:43:40;;;;;;;2.20;1.70;;;5.40;99.90;;;;;;5014347;28;20034;-69
2021/01/01 12:46:06;;;;;;;5.00;2.50;;;5.50;99.90;;;;;;5012986;28;20029;-70
2021/01/01 12:48:32;;;;;;;2.83;1.60;;;5.60;99.90;;;;;;5020126;28;20380;-69
2021/01/01 12:50:57;;;;;;;1.67;1.57;;;5.60;99.90;;;;;;5023139;28;20743;-69
2021/01/01 12:53:23;;;;;;;1.30;1.20;;;5.60;99.90;;;;;;5013030;28;20059;-69
2021/01/01 12:55:49;;;;;;;3.87;1.10;;;5.70;99.90;;;;;;5017275;28;20030;-69
2021/01/01 12:58:15;;;;;;;1.00;1.00;;;5.80;99.90;;;;;;5022824;28;20030;-69
2021/01/01 13:00:40;;;;;;;6.50;2.73;;;5.90;99.90;;;;;;5018667;28;20038;-69
2021/01/01 13:03:06;;;;;;;11.93;1.45;;;5.90;99.90;;;;;;5012258;28;20431;-69
2021/01/01 13:05:32;;;;;;;2.90;1.80;;;5.80;99.90;;;;;;5013040;28;20072;-69
2021/01/01 13:07:57;;;;;;;1.57;1.47;;;5.80;99.90;;;;;;5008562;28;20069;-69
2021/01/01 13:10:23;;;;;;;1.53;1.27;;;5.70;99.90;;;;;;5013558;28;20038;-69
2021/01/01 13:12:49;;;;;;;4.00;1.80;;;5.80;99.90;;;;;;5036207;28;20030;-69
2021/01/01 13:15:14;;;;;;;4.23;1.80;;;5.80;99.90;;;;;;5014928;28;20026;-69
2021/01/01 13:17:40;;;;;;;0.90;0.50;;;5.90;99.90;;;;;;5014564;28;20049;-69
2021/01/01 13:20:07;;;;;;;2.30;0.95;;;5.90;99.90;;;;;;5023603;28;20036;-70
2021/01/01 13:22:32;;;;;;;4.65;2.05;;;6.00;99.90;;;;;;4903435;28;20026;-69
2021/01/01 13:24:58;;;;;;;5.35;1.45;;;6.00;99.90;;;;;;5020523;28;20036;-69
2021/01/01 13:27:25;;;;;;;3.00;1.63;;;5.90;99.90;;;;;;5019994;28;20033;-69
2021/01/01 13:29:53;;;;;;;1.85;1.00;;;5.90;99.90;;;;;;5038698;28;20034;-69
2021/01/01 13:32:18;;;;;;;2.80;1.70;;;5.90;99.90;;;;;;5023083;28;20331;-69
2021/01/01 13:34:45;;;;;;;1.80;0.90;;;5.80;99.90;;;;;;5017617;28;20033;-69
2021/01/01 13:37:11;;;;;;;1.63;1.20;;;5.70;99.90;;;;;;5018575;28;20021;-70
2021/01/01 13:39:36;;;;;;;35.90;13.65;;;5.60;99.90;;;;;;5014563;28;20042;-69
2021/01/01 13:42:02;;;;;;;17.33;10.03;;;5.60;99.90;;;;;;5010002;28;20026;-69
2021/01/01 13:44:28;;;;;;;4.87;3.63;;;5.50;99.90;;;;;;5006802;28;20470;-69
2021/01/01 13:46:53;;;;;;;6.53;3.15;;;5.50;99.90;;;;;;5013687;28;20026;-69
2021/01/01 13:49:19;;;;;;;3.03;1.87;;;5.60;99.90;;;;;;5024417;28;20646;-70
2021/01/01 13:51:45;;;;;;;1.97;1.53;;;5.60;99.90;;;;;;5027091;28;20021;-69
2021/01/01 13:54:10;;;;;;;1.37;1.10;;;5.60;99.90;;;;;;5026130;28;20021;-69
2021/01/01 13:56:38;;;;;;;1.63;1.53;;;5.60;99.90;;;;;;5021125;28;20021;-69